sensor_id;sensor_type;location;lat;lon;timestamp;temperature;humidity
14877;DHT22;69691;48.172;17.070;2024-02-14T00:00:19;2.90;87.90
14877;DHT22;69691;48.172;17.070;2024-02-14T00:02:47;2.90;88.00
14877;DHT22;69691;48.172;17.070;2024-02-14T00:05:15;2.90;88.20
14877;DHT22;69691;48.172;17.070;2024-02-14T00:07:42;2.80;88.30
14877;DHT22;69691;48.172;17.070;2024-02-14T00:10:08;2.80;88.50
14877;DHT22;69691;48.172;17.070;2024-02-14T00:12:35;2.80;88.60
14877;DHT22;69691;48.172;17.070;2024-02-14T00:15:03;2.80;88.70
14877;DHT22;69691;48.172;17.070;2024-02-14T00:17:31;2.80;88.80
14877;DHT22;69691;48.172;17.070;2024-02-14T00:19:59;2.80;88.90
14877;DHT22;69691;48.172;17.070;2024-02-14T00:22:27;2.80;89.00
14877;DHT22;69691;48.172;17.070;2024-02-14T00:24:53;2.80;89.00
14877;DHT22;69691;48.172;17.070;2024-02-14T00:27:18;2.80;88.80
14877;DHT22;69691;48.172;17.070;2024-02-14T00:29:44;2.80;88.60
14877;DHT22;69691;48.172;17.070;2024-02-14T00:32:15;2.80;88.60
14877;DHT22;69691;48.172;17.070;2024-02-14T00:34:41;2.80;88.70
14877;DHT22;69691;48.172;17.070;2024-02-14T00:37:07;2.80;88.80
14877;DHT22;69691;48.172;17.070;2024-02-14T00:39:33;2.70;88.80
14877;DHT22;69691;48.172;17.070;2024-02-14T00:41:59;2.70;89.00
14877;DHT22;69691;48.172;17.070;2024-02-14T00:44:25;2.70;89.00
14877;DHT22;69691;48.172;17.070;2024-02-14T00:46:59;2.70;89.00
14877;DHT22;69691;48.172;17.070;2024-02-14T00:49:25;2.70;88.80
14877;DHT22;69691;48.172;17.070;2024-02-14T00:51:51;2.70;88.70
14877;DHT22;69691;48.172;17.070;2024-02-14T00:54:17;2.70;88.60
14877;DHT22;69691;48.172;17.070;2024-02-14T00:56:43;2.60;88.60
14877;DHT22;69691;48.172;17.070;2024-02-14T00:59:09;2.60;88.90
14877;DHT22;69691;48.172;17.070;2024-02-14T01:01:35;2.50;89.20
14877;DHT22;69691;48.172;17.070;2024-02-14T01:04:01;2.50;89.50
14877;DHT22;69691;48.172;17.070;2024-02-14T01:06:30;2.50;89.60
14877;DHT22;69691;48.172;17.070;2024-02-14T01:08:56;2.50;89.60
14877;DHT22;69691;48.172;17.070;2024-02-14T01:11:21;2.50;89.80
14877;DHT22;69691;48.172;17.070;2024-02-14T01:13:47;2.40;89.90
14877;DHT22;69691;48.172;17.070;2024-02-14T01:16:13;2.40;90.00
14877;DHT22;69691;48.172;17.070;2024-02-14T01:18:40;2.40;90.10
14877;DHT22;69691;48.172;17.070;2024-02-14T01:21:06;2.40;90.40
14877;DHT22;69691;48.172;17.070;2024-02-14T01:23:32;2.40;90.00
14877;DHT22;69691;48.172;17.070;2024-02-14T01:25:58;2.50;90.00
14877;DHT22;69691;48.172;17.070;2024-02-14T01:28:24;2.50;90.00
14877;DHT22;69691;48.172;17.070;2024-02-14T01:30:51;2.50;90.00
14877;DHT22;69691;48.172;17.070;2024-02-14T01:33:17;2.50;89.90
14877;DHT22;69691;48.172;17.070;2024-02-14T01:35:43;2.50;89.80
14877;DHT22;69691;48.172;17.070;2024-02-14T01:38:08;2.40;89.80
14877;DHT22;69691;48.172;17.070;2024-02-14T01:40:34;2.40;90.20
14877;DHT22;69691;48.172;17.070;2024-02-14T01:43:00;2.50;89.70
14877;DHT22;69691;48.172;17.070;2024-02-14T01:45:26;2.50;89.60
14877;DHT22;69691;48.172;17.070;2024-02-14T01:47:53;2.40;89.80
14877;DHT22;69691;48.172;17.070;2024-02-14T01:50:21;2.40;90.00
14877;DHT22;69691;48.172;17.070;2024-02-14T01:52:54;2.40;90.00
14877;DHT22;69691;48.172;17.070;2024-02-14T01:55:22;2.40;90.00
14877;DHT22;69691;48.172;17.070;2024-02-14T01:57:48;2.40;89.80
14877;DHT22;69691;48.172;17.070;2024-02-14T02:00:14;2.40;90.00
14877;DHT22;69691;48.172;17.070;2024-02-14T02:02:43;2.30;90.10
14877;DHT22;69691;48.172;17.070;2024-02-14T02:05:15;2.30;90.30
14877;DHT22;69691;48.172;17.070;2024-02-14T02:07:42;2.30;90.40
14877;DHT22;69691;48.172;17.070;2024-02-14T02:10:12;2.30;90.50
14877;DHT22;69691;48.172;17.070;2024-02-14T02:12:38;2.30;90.50
14877;DHT22;69691;48.172;17.070;2024-02-14T02:15:08;2.30;90.30
14877;DHT22;69691;48.172;17.070;2024-02-14T02:17:40;2.30;90.30
14877;DHT22;69691;48.172;17.070;2024-02-14T02:20:06;2.30;90.50
14877;DHT22;69691;48.172;17.070;2024-02-14T02:22:34;2.20;90.50
14877;DHT22;69691;48.172;17.070;2024-02-14T02:25:04;2.10;90.70
14877;DHT22;69691;48.172;17.070;2024-02-14T02:27:33;2.10;90.80
14877;DHT22;69691;48.172;17.070;2024-02-14T02:30:07;2.10;90.90
14877;DHT22;69691;48.172;17.070;2024-02-14T02:32:34;2.10;90.90
14877;DHT22;69691;48.172;17.070;2024-02-14T02:34:59;2.20;90.90
14877;DHT22;69691;48.172;17.070;2024-02-14T02:37:27;2.20;90.70
14877;DHT22;69691;48.172;17.070;2024-02-14T02:39:56;2.20;90.70
14877;DHT22;69691;48.172;17.070;2024-02-14T02:42:22;2.20;90.70
14877;DHT22;69691;48.172;17.070;2024-02-14T02:44:52;2.20;90.70
14877;DHT22;69691;48.172;17.070;2024-02-14T02:47:18;2.20;90.80
14877;DHT22;69691;48.172;17.070;2024-02-14T02:49:44;2.20;90.80
14877;DHT22;69691;48.172;17.070;2024-02-14T02:52:10;2.30;90.90
14877;DHT22;69691;48.172;17.070;2024-02-14T02:54:37;2.30;90.80
14877;DHT22;69691;48.172;17.070;2024-02-14T02:57:07;2.30;90.80
14877;DHT22;69691;48.172;17.070;2024-02-14T02:59:35;2.30;90.80
14877;DHT22;69691;48.172;17.070;2024-02-14T03:02:01;2.30;90.90
14877;DHT22;69691;48.172;17.070;2024-02-14T03:04:27;2.40;91.00
14877;DHT22;69691;48.172;17.070;2024-02-14T03:06:55;2.40;90.90
14877;DHT22;69691;48.172;17.070;2024-02-14T03:09:20;2.40;90.90
14877;DHT22;69691;48.172;17.070;2024-02-14T03:11:47;2.40;90.90
14877;DHT22;69691;48.172;17.070;2024-02-14T03:14:14;2.40;90.90
14877;DHT22;69691;48.172;17.070;2024-02-14T03:16:40;2.40;90.90
14877;DHT22;69691;48.172;17.070;2024-02-14T03:19:06;2.40;91.00
14877;DHT22;69691;48.172;17.070;2024-02-14T03:21:32;2.40;91.10
14877;DHT22;69691;48.172;17.070;2024-02-14T03:24:03;2.40;91.10
14877;DHT22;69691;48.172;17.070;2024-02-14T03:26:31;2.40;91.00
14877;DHT22;69691;48.172;17.070;2024-02-14T03:29:01;2.40;91.00
14877;DHT22;69691;48.172;17.070;2024-02-14T03:31:30;2.40;91.00
14877;DHT22;69691;48.172;17.070;2024-02-14T03:33:56;2.40;91.00
14877;DHT22;69691;48.172;17.070;2024-02-14T03:36:22;2.40;90.90
14877;DHT22;69691;48.172;17.070;2024-02-14T03:38:49;2.30;90.90
14877;DHT22;69691;48.172;17.070;2024-02-14T03:41:15;2.30;91.00
14877;DHT22;69691;48.172;17.070;2024-02-14T03:43:41;2.20;91.10
14877;DHT22;69691;48.172;17.070;2024-02-14T03:46:08;2.20;91.20
14877;DHT22;69691;48.172;17.070;2024-02-14T03:48:33;2.20;91.20
14877;DHT22;69691;48.172;17.070;2024-02-14T03:50:59;2.20;91.20
14877;DHT22;69691;48.172;17.070;2024-02-14T03:53:25;2.20;91.20
14877;DHT22;69691;48.172;17.070;2024-02-14T03:55:51;2.10;91.20
14877;DHT22;69691;48.172;17.070;2024-02-14T03:58:19;2.10;91.30
14877;DHT22;69691;48.172;17.070;2024-02-14T04:00:50;2.10;91.40
14877;DHT22;69691;48.172;17.070;2024-02-14T04:03:16;2.10;91.50
14877;DHT22;69691;48.172;17.070;2024-02-14T04:05:43;2.10;91.50
14877;DHT22;69691;48.172;17.070;2024-02-14T04:08:09;2.20;91.40
14877;DHT22;69691;48.172;17.070;2024-02-14T04:10:38;2.20;91.30
14877;DHT22;69691;48.172;17.070;2024-02-14T04:13:05;2.20;91.30
14877;DHT22;69691;48.172;17.070;2024-02-14T04:15:32;2.20;91.40
14877;DHT22;69691;48.172;17.070;2024-02-14T04:17:58;2.20;91.40
14877;DHT22;69691;48.172;17.070;2024-02-14T04:20:25;2.20;91.30
14877;DHT22;69691;48.172;17.070;2024-02-14T04:22:51;2.20;91.30
14877;DHT22;69691;48.172;17.070;2024-02-14T04:25:17;2.20;91.40
14877;DHT22;69691;48.172;17.070;2024-02-14T04:27:44;2.20;91.40
14877;DHT22;69691;48.172;17.070;2024-02-14T04:30:10;2.20;91.30
14877;DHT22;69691;48.172;17.070;2024-02-14T04:32:36;2.10;91.30
14877;DHT22;69691;48.172;17.070;2024-02-14T04:35:02;2.10;91.40
14877;DHT22;69691;48.172;17.070;2024-02-14T04:37:29;2.10;91.50
14877;DHT22;69691;48.172;17.070;2024-02-14T04:39:55;2.10;91.50
14877;DHT22;69691;48.172;17.070;2024-02-14T04:42:21;2.10;91.50
14877;DHT22;69691;48.172;17.070;2024-02-14T04:44:46;2.20;91.60
14877;DHT22;69691;48.172;17.070;2024-02-14T04:47:12;2.20;91.90
14877;DHT22;69691;48.172;17.070;2024-02-14T04:49:38;2.20;91.50
14877;DHT22;69691;48.172;17.070;2024-02-14T04:52:04;2.30;91.50
14877;DHT22;69691;48.172;17.070;2024-02-14T04:54:30;2.20;91.50
14877;DHT22;69691;48.172;17.070;2024-02-14T04:56:56;2.30;91.60
14877;DHT22;69691;48.172;17.070;2024-02-14T04:59:22;2.30;91.60
14877;DHT22;69691;48.172;17.070;2024-02-14T05:01:47;2.30;91.60
14877;DHT22;69691;48.172;17.070;2024-02-14T05:04:13;2.40;91.60
14877;DHT22;69691;48.172;17.070;2024-02-14T05:06:39;2.30;91.60
14877;DHT22;69691;48.172;17.070;2024-02-14T05:09:05;2.40;91.70
14877;DHT22;69691;48.172;17.070;2024-02-14T05:11:31;2.50;91.80
14877;DHT22;69691;48.172;17.070;2024-02-14T05:13:57;2.60;91.70
14877;DHT22;69691;48.172;17.070;2024-02-14T05:16:23;2.70;91.70
14877;DHT22;69691;48.172;17.070;2024-02-14T05:18:49;2.80;91.60
14877;DHT22;69691;48.172;17.070;2024-02-14T05:21:15;2.80;91.50
14877;DHT22;69691;48.172;17.070;2024-02-14T05:23:42;2.80;91.50
14877;DHT22;69691;48.172;17.070;2024-02-14T05:26:08;2.80;91.40
14877;DHT22;69691;48.172;17.070;2024-02-14T05:28:33;2.90;91.40
14877;DHT22;69691;48.172;17.070;2024-02-14T05:31:01;2.90;91.40
14877;DHT22;69691;48.172;17.070;2024-02-14T05:33:28;3.00;91.70
14877;DHT22;69691;48.172;17.070;2024-02-14T05:35:54;3.00;91.20
14877;DHT22;69691;48.172;17.070;2024-02-14T05:38:20;3.00;91.20
14877;DHT22;69691;48.172;17.070;2024-02-14T05:40:47;2.90;91.20
14877;DHT22;69691;48.172;17.070;2024-02-14T05:43:16;2.90;91.20
14877;DHT22;69691;48.172;17.070;2024-02-14T05:45:44;2.90;91.20
14877;DHT22;69691;48.172;17.070;2024-02-14T05:48:09;2.90;91.20
14877;DHT22;69691;48.172;17.070;2024-02-14T05:50:35;2.90;91.20
14877;DHT22;69691;48.172;17.070;2024-02-14T05:53:02;2.90;91.20
14877;DHT22;69691;48.172;17.070;2024-02-14T05:55:28;2.90;91.30
14877;DHT22;69691;48.172;17.070;2024-02-14T05:57:54;2.90;91.30
14877;DHT22;69691;48.172;17.070;2024-02-14T06:00:20;3.00;91.30
14877;DHT22;69691;48.172;17.070;2024-02-14T06:02:48;3.00;91.30
14877;DHT22;69691;48.172;17.070;2024-02-14T06:05:16;3.10;91.30
14877;DHT22;69691;48.172;17.070;2024-02-14T06:07:43;3.00;91.30
14877;DHT22;69691;48.172;17.070;2024-02-14T06:10:10;3.10;91.40
14877;DHT22;69691;48.172;17.070;2024-02-14T06:12:36;3.10;91.40
14877;DHT22;69691;48.172;17.070;2024-02-14T06:15:03;3.10;91.50
14877;DHT22;69691;48.172;17.070;2024-02-14T06:17:29;3.20;91.50
14877;DHT22;69691;48.172;17.070;2024-02-14T06:19:55;3.20;91.50
14877;DHT22;69691;48.172;17.070;2024-02-14T06:22:21;3.30;91.50
14877;DHT22;69691;48.172;17.070;2024-02-14T06:24:47;3.40;91.40
14877;DHT22;69691;48.172;17.070;2024-02-14T06:27:14;3.50;91.40
14877;DHT22;69691;48.172;17.070;2024-02-14T06:29:43;3.50;91.30
14877;DHT22;69691;48.172;17.070;2024-02-14T06:32:12;3.60;91.20
14877;DHT22;69691;48.172;17.070;2024-02-14T06:34:38;3.70;91.40
14877;DHT22;69691;48.172;17.070;2024-02-14T06:37:04;3.80;91.00
14877;DHT22;69691;48.172;17.070;2024-02-14T06:39:30;3.90;91.00
14877;DHT22;69691;48.172;17.070;2024-02-14T06:41:56;3.90;91.00
14877;DHT22;69691;48.172;17.070;2024-02-14T06:44:25;4.00;90.90
14877;DHT22;69691;48.172;17.070;2024-02-14T06:46:51;4.20;90.90
14877;DHT22;69691;48.172;17.070;2024-02-14T06:49:17;4.30;90.80
14877;DHT22;69691;48.172;17.070;2024-02-14T06:51:44;4.40;90.80
14877;DHT22;69691;48.172;17.070;2024-02-14T06:54:11;4.50;90.60
14877;DHT22;69691;48.172;17.070;2024-02-14T06:56:39;4.70;90.50
14877;DHT22;69691;48.172;17.070;2024-02-14T06:59:05;4.80;90.40
14877;DHT22;69691;48.172;17.070;2024-02-14T07:01:32;4.80;90.40
14877;DHT22;69691;48.172;17.070;2024-02-14T07:03:59;4.80;90.50
14877;DHT22;69691;48.172;17.070;2024-02-14T07:06:25;4.90;90.40
14877;DHT22;69691;48.172;17.070;2024-02-14T07:08:51;5.00;90.20
14877;DHT22;69691;48.172;17.070;2024-02-14T07:11:17;5.20;90.20
14877;DHT22;69691;48.172;17.070;2024-02-14T07:13:43;5.30;90.10
14877;DHT22;69691;48.172;17.070;2024-02-14T07:16:09;5.40;89.90
14877;DHT22;69691;48.172;17.070;2024-02-14T07:18:35;5.50;90.10
14877;DHT22;69691;48.172;17.070;2024-02-14T07:21:01;5.70;88.70
14877;DHT22;69691;48.172;17.070;2024-02-14T07:23:27;5.90;89.10
14877;DHT22;69691;48.172;17.070;2024-02-14T07:25:53;6.10;88.60
14877;DHT22;69691;48.172;17.070;2024-02-14T07:28:19;6.20;88.20
14877;DHT22;69691;48.172;17.070;2024-02-14T07:30:45;6.40;87.90
14877;DHT22;69691;48.172;17.070;2024-02-14T07:33:11;6.40;87.40
14877;DHT22;69691;48.172;17.070;2024-02-14T07:35:37;6.60;86.90
14877;DHT22;69691;48.172;17.070;2024-02-14T07:38:03;6.70;86.20
14877;DHT22;69691;48.172;17.070;2024-02-14T07:40:29;6.80;85.70
14877;DHT22;69691;48.172;17.070;2024-02-14T07:42:57;6.90;85.50
14877;DHT22;69691;48.172;17.070;2024-02-14T07:45:23;7.00;85.00
14877;DHT22;69691;48.172;17.070;2024-02-14T07:47:49;7.00;84.40
14877;DHT22;69691;48.172;17.070;2024-02-14T07:50:16;7.10;84.10
14877;DHT22;69691;48.172;17.070;2024-02-14T07:52:43;7.10;83.80
14877;DHT22;69691;48.172;17.070;2024-02-14T07:55:09;7.10;83.60
14877;DHT22;69691;48.172;17.070;2024-02-14T07:57:42;7.00;83.60
14877;DHT22;69691;48.172;17.070;2024-02-14T08:00:09;6.90;83.60
14877;DHT22;69691;48.172;17.070;2024-02-14T08:02:36;6.90;83.70
14877;DHT22;69691;48.172;17.070;2024-02-14T08:05:03;6.90;83.70
14877;DHT22;69691;48.172;17.070;2024-02-14T08:07:30;6.90;83.70
14877;DHT22;69691;48.172;17.070;2024-02-14T08:09:56;7.00;83.60
14877;DHT22;69691;48.172;17.070;2024-02-14T08:12:22;7.20;83.50
14877;DHT22;69691;48.172;17.070;2024-02-14T08:14:50;7.30;83.10
14877;DHT22;69691;48.172;17.070;2024-02-14T08:17:16;7.50;82.80
14877;DHT22;69691;48.172;17.070;2024-02-14T08:19:42;7.80;82.30
14877;DHT22;69691;48.172;17.070;2024-02-14T08:22:07;7.90;81.60
14877;DHT22;69691;48.172;17.070;2024-02-14T08:24:33;8.00;80.90
14877;DHT22;69691;48.172;17.070;2024-02-14T08:27:31;8.10;80.20
14877;DHT22;69691;48.172;17.070;2024-02-14T08:29:58;8.30;79.70
14877;DHT22;69691;48.172;17.070;2024-02-14T08:32:24;8.40;78.80
14877;DHT22;69691;48.172;17.070;2024-02-14T08:34:49;8.50;78.10
14877;DHT22;69691;48.172;17.070;2024-02-14T08:37:16;8.70;77.20
14877;DHT22;69691;48.172;17.070;2024-02-14T08:39:41;9.00;76.20
14877;DHT22;69691;48.172;17.070;2024-02-14T08:42:07;9.30;75.20
14877;DHT22;69691;48.172;17.070;2024-02-14T08:44:35;9.60;74.00
14877;DHT22;69691;48.172;17.070;2024-02-14T08:47:01;9.90;72.60
14877;DHT22;69691;48.172;17.070;2024-02-14T08:49:26;10.20;70.10
14877;DHT22;69691;48.172;17.070;2024-02-14T08:51:52;10.40;69.00
14877;DHT22;69691;48.172;17.070;2024-02-14T08:54:18;10.60;68.20
14877;DHT22;69691;48.172;17.070;2024-02-14T08:56:45;10.70;67.40
14877;DHT22;69691;48.172;17.070;2024-02-14T08:59:11;10.90;66.70
14877;DHT22;69691;48.172;17.070;2024-02-14T09:01:38;11.00;66.00
14877;DHT22;69691;48.172;17.070;2024-02-14T09:04:04;11.10;65.30
14877;DHT22;69691;48.172;17.070;2024-02-14T09:06:30;11.20;64.60
14877;DHT22;69691;48.172;17.070;2024-02-14T09:08:58;11.20;64.00
14877;DHT22;69691;48.172;17.070;2024-02-14T09:11:23;11.20;63.50
14877;DHT22;69691;48.172;17.070;2024-02-14T09:13:51;11.20;63.10
14877;DHT22;69691;48.172;17.070;2024-02-14T09:16:19;11.30;62.60
14877;DHT22;69691;48.172;17.070;2024-02-14T09:18:47;11.40;62.10
14877;DHT22;69691;48.172;17.070;2024-02-14T09:21:13;11.50;61.40
14877;DHT22;69691;48.172;17.070;2024-02-14T09:23:41;11.60;60.80
14877;DHT22;69691;48.172;17.070;2024-02-14T09:26:07;11.60;60.50
14877;DHT22;69691;48.172;17.070;2024-02-14T09:28:33;11.60;60.40
14877;DHT22;69691;48.172;17.070;2024-02-14T09:31:01;11.40;60.10
14877;DHT22;69691;48.172;17.070;2024-02-14T09:33:29;11.30;60.20
14877;DHT22;69691;48.172;17.070;2024-02-14T09:35:55;11.10;60.20
14877;DHT22;69691;48.172;17.070;2024-02-14T09:38:21;11.00;60.50
14877;DHT22;69691;48.172;17.070;2024-02-14T09:40:50;10.90;60.90
14877;DHT22;69691;48.172;17.070;2024-02-14T09:43:34;11.00;61.40
14877;DHT22;69691;48.172;17.070;2024-02-14T09:46:02;11.00;61.50
14877;DHT22;69691;48.172;17.070;2024-02-14T09:48:30;11.20;61.40
14877;DHT22;69691;48.172;17.070;2024-02-14T09:50:56;11.40;61.10
14877;DHT22;69691;48.172;17.070;2024-02-14T09:53:23;11.60;60.70
14877;DHT22;69691;48.172;17.070;2024-02-14T09:55:50;11.70;60.40
14877;DHT22;69691;48.172;17.070;2024-02-14T09:58:17;11.80;60.00
14877;DHT22;69691;48.172;17.070;2024-02-14T10:00:43;11.80;59.70
14877;DHT22;69691;48.172;17.070;2024-02-14T10:03:10;11.80;59.30
14877;DHT22;69691;48.172;17.070;2024-02-14T10:05:36;11.90;59.00
14877;DHT22;69691;48.172;17.070;2024-02-14T10:08:03;11.90;58.70
14877;DHT22;69691;48.172;17.070;2024-02-14T10:10:32;12.00;58.30
14877;DHT22;69691;48.172;17.070;2024-02-14T10:13:03;12.20;58.10
14877;DHT22;69691;48.172;17.070;2024-02-14T10:15:29;12.40;57.80
14877;DHT22;69691;48.172;17.070;2024-02-14T10:17:58;12.70;57.40
14877;DHT22;69691;48.172;17.070;2024-02-14T10:20:25;13.10;56.80
14877;DHT22;69691;48.172;17.070;2024-02-14T10:22:59;13.40;56.20
14877;DHT22;69691;48.172;17.070;2024-02-14T10:25:26;13.50;55.80
14877;DHT22;69691;48.172;17.070;2024-02-14T10:27:52;13.60;55.70
14877;DHT22;69691;48.172;17.070;2024-02-14T10:30:17;13.70;55.50
14877;DHT22;69691;48.172;17.070;2024-02-14T10:32:43;13.80;55.30
14877;DHT22;69691;48.172;17.070;2024-02-14T10:35:15;13.90;55.00
14877;DHT22;69691;48.172;17.070;2024-02-14T10:37:41;14.00;54.80
14877;DHT22;69691;48.172;17.070;2024-02-14T10:40:08;14.10;54.50
14877;DHT22;69691;48.172;17.070;2024-02-14T10:42:37;14.10;54.10
14877;DHT22;69691;48.172;17.070;2024-02-14T10:45:04;14.10;54.30
14877;DHT22;69691;48.172;17.070;2024-02-14T10:47:35;14.10;53.90
14877;DHT22;69691;48.172;17.070;2024-02-14T10:50:06;14.00;53.90
14877;DHT22;69691;48.172;17.070;2024-02-14T10:52:35;13.90;54.00
14877;DHT22;69691;48.172;17.070;2024-02-14T10:55:04;13.90;54.00
14877;DHT22;69691;48.172;17.070;2024-02-14T10:57:31;14.00;53.90
14877;DHT22;69691;48.172;17.070;2024-02-14T11:00:06;14.10;53.60
14877;DHT22;69691;48.172;17.070;2024-02-14T11:02:39;14.20;53.40
14877;DHT22;69691;48.172;17.070;2024-02-14T11:05:11;14.30;53.20
14877;DHT22;69691;48.172;17.070;2024-02-14T11:07:47;14.30;53.10
14877;DHT22;69691;48.172;17.070;2024-02-14T11:10:16;14.20;52.90
14877;DHT22;69691;48.172;17.070;2024-02-14T11:12:42;14.10;52.90
14877;DHT22;69691;48.172;17.070;2024-02-14T11:15:19;13.90;53.10
14877;DHT22;69691;48.172;17.070;2024-02-14T11:17:47;13.60;53.10
14877;DHT22;69691;48.172;17.070;2024-02-14T11:20:20;13.40;53.50
14877;DHT22;69691;48.172;17.070;2024-02-14T11:22:58;13.30;53.70
14877;DHT22;69691;48.172;17.070;2024-02-14T11:25:29;13.00;53.90
14877;DHT22;69691;48.172;17.070;2024-02-14T11:27:57;12.80;54.00
14877;DHT22;69691;48.172;17.070;2024-02-14T11:30:33;12.60;54.20
14877;DHT22;69691;48.172;17.070;2024-02-14T11:33:30;12.60;54.40
14877;DHT22;69691;48.172;17.070;2024-02-14T11:35:56;12.70;54.20
14877;DHT22;69691;48.172;17.070;2024-02-14T11:38:23;12.90;54.20
14877;DHT22;69691;48.172;17.070;2024-02-14T11:40:55;13.00;53.90
14877;DHT22;69691;48.172;17.070;2024-02-14T11:43:24;13.10;53.70
14877;DHT22;69691;48.172;17.070;2024-02-14T11:45:50;13.20;53.70
14877;DHT22;69691;48.172;17.070;2024-02-14T11:48:18;13.30;53.60
14877;DHT22;69691;48.172;17.070;2024-02-14T11:50:49;13.40;53.50
14877;DHT22;69691;48.172;17.070;2024-02-14T11:53:15;13.60;53.50
14877;DHT22;69691;48.172;17.070;2024-02-14T11:55:45;13.80;53.40
14877;DHT22;69691;48.172;17.070;2024-02-14T11:58:15;13.90;53.30
14877;DHT22;69691;48.172;17.070;2024-02-14T12:00:46;14.00;53.20
14877;DHT22;69691;48.172;17.070;2024-02-14T12:03:15;14.00;53.20
14877;DHT22;69691;48.172;17.070;2024-02-14T12:05:43;14.00;53.20
14877;DHT22;69691;48.172;17.070;2024-02-14T12:08:10;14.10;53.30
14877;DHT22;69691;48.172;17.070;2024-02-14T12:10:36;14.10;53.90
14877;DHT22;69691;48.172;17.070;2024-02-14T12:13:12;14.10;53.50
14877;DHT22;69691;48.172;17.070;2024-02-14T12:15:44;14.20;53.40
14877;DHT22;69691;48.172;17.070;2024-02-14T12:18:11;14.20;53.40
14877;DHT22;69691;48.172;17.070;2024-02-14T12:20:38;14.20;53.50
14877;DHT22;69691;48.172;17.070;2024-02-14T12:23:04;14.20;53.50
14877;DHT22;69691;48.172;17.070;2024-02-14T12:25:33;14.00;53.70
14877;DHT22;69691;48.172;17.070;2024-02-14T12:28:00;14.00;54.00
14877;DHT22;69691;48.172;17.070;2024-02-14T12:30:48;14.00;54.00
14877;DHT22;69691;48.172;17.070;2024-02-14T12:33:16;14.00;54.00
14877;DHT22;69691;48.172;17.070;2024-02-14T12:35:44;14.00;54.00
14877;DHT22;69691;48.172;17.070;2024-02-14T12:38:11;14.00;54.10
14877;DHT22;69691;48.172;17.070;2024-02-14T12:40:39;14.10;54.20
14877;DHT22;69691;48.172;17.070;2024-02-14T12:43:13;14.20;54.10
14877;DHT22;69691;48.172;17.070;2024-02-14T12:45:41;14.20;53.90
14877;DHT22;69691;48.172;17.070;2024-02-14T12:48:08;14.30;54.00
14877;DHT22;69691;48.172;17.070;2024-02-14T12:50:35;14.40;53.90
14877;DHT22;69691;48.172;17.070;2024-02-14T12:53:04;14.40;53.90
14877;DHT22;69691;48.172;17.070;2024-02-14T12:55:33;14.50;53.80
14877;DHT22;69691;48.172;17.070;2024-02-14T12:58:00;14.60;53.60
14877;DHT22;69691;48.172;17.070;2024-02-14T13:00:26;14.40;53.60
14877;DHT22;69691;48.172;17.070;2024-02-14T13:02:53;14.30;53.70
14877;DHT22;69691;48.172;17.070;2024-02-14T13:05:19;14.30;53.80
14877;DHT22;69691;48.172;17.070;2024-02-14T13:07:45;14.30;53.80
14877;DHT22;69691;48.172;17.070;2024-02-14T13:10:12;14.40;53.70
14877;DHT22;69691;48.172;17.070;2024-02-14T13:12:38;14.40;53.60
14877;DHT22;69691;48.172;17.070;2024-02-14T13:15:05;14.40;53.50
14877;DHT22;69691;48.172;17.070;2024-02-14T13:17:32;14.50;53.30
14877;DHT22;69691;48.172;17.070;2024-02-14T13:19:57;14.70;53.30
14877;DHT22;69691;48.172;17.070;2024-02-14T13:22:25;14.70;53.10
14877;DHT22;69691;48.172;17.070;2024-02-14T13:24:52;14.70;53.10
14877;DHT22;69691;48.172;17.070;2024-02-14T13:27:17;14.70;53.00
14877;DHT22;69691;48.172;17.070;2024-02-14T13:29:47;14.70;52.90
14877;DHT22;69691;48.172;17.070;2024-02-14T13:32:13;14.70;52.90
14877;DHT22;69691;48.172;17.070;2024-02-14T13:34:39;14.80;52.90
14877;DHT22;69691;48.172;17.070;2024-02-14T13:37:04;14.90;52.80
14877;DHT22;69691;48.172;17.070;2024-02-14T13:39:31;14.90;52.70
14877;DHT22;69691;48.172;17.070;2024-02-14T13:41:57;14.90;52.70
14877;DHT22;69691;48.172;17.070;2024-02-14T13:44:25;14.90;52.80
14877;DHT22;69691;48.172;17.070;2024-02-14T13:46:51;14.80;52.70
14877;DHT22;69691;48.172;17.070;2024-02-14T13:49:19;14.90;52.80
14877;DHT22;69691;48.172;17.070;2024-02-14T13:51:49;14.80;52.90
14877;DHT22;69691;48.172;17.070;2024-02-14T13:54:21;14.80;52.90
14877;DHT22;69691;48.172;17.070;2024-02-14T13:56:50;14.80;52.90
14877;DHT22;69691;48.172;17.070;2024-02-14T13:59:16;14.80;52.90
14877;DHT22;69691;48.172;17.070;2024-02-14T14:01:42;14.60;53.00
14877;DHT22;69691;48.172;17.070;2024-02-14T14:04:08;14.60;53.20
14877;DHT22;69691;48.172;17.070;2024-02-14T14:06:34;14.50;53.40
14877;DHT22;69691;48.172;17.070;2024-02-14T14:09:01;14.40;53.50
14877;DHT22;69691;48.172;17.070;2024-02-14T14:11:28;14.20;53.70
14877;DHT22;69691;48.172;17.070;2024-02-14T14:13:54;13.90;54.00
14877;DHT22;69691;48.172;17.070;2024-02-14T14:16:21;13.70;54.50
14877;DHT22;69691;48.172;17.070;2024-02-14T14:18:49;13.50;54.80
14877;DHT22;69691;48.172;17.070;2024-02-14T14:21:15;13.50;54.90
14877;DHT22;69691;48.172;17.070;2024-02-14T14:23:41;13.50;55.00
14877;DHT22;69691;48.172;17.070;2024-02-14T14:26:07;13.50;55.00
14877;DHT22;69691;48.172;17.070;2024-02-14T14:28:33;13.50;55.10
14877;DHT22;69691;48.172;17.070;2024-02-14T14:30:59;13.50;55.20
14877;DHT22;69691;48.172;17.070;2024-02-14T14:33:27;13.50;55.20
14877;DHT22;69691;48.172;17.070;2024-02-14T14:35:54;13.60;55.30
14877;DHT22;69691;48.172;17.070;2024-02-14T14:38:24;13.70;55.20
14877;DHT22;69691;48.172;17.070;2024-02-14T14:40:52;13.80;55.20
14877;DHT22;69691;48.172;17.070;2024-02-14T14:43:20;13.90;55.20
14877;DHT22;69691;48.172;17.070;2024-02-14T14:45:47;13.90;55.10
14877;DHT22;69691;48.172;17.070;2024-02-14T14:48:12;13.90;55.20
14877;DHT22;69691;48.172;17.070;2024-02-14T14:50:38;13.70;55.40
14877;DHT22;69691;48.172;17.070;2024-02-14T14:53:04;13.50;55.70
14877;DHT22;69691;48.172;17.070;2024-02-14T14:55:54;13.40;56.00
14877;DHT22;69691;48.172;17.070;2024-02-14T14:58:21;13.30;56.40
14877;DHT22;69691;48.172;17.070;2024-02-14T15:00:49;13.10;56.50
14877;DHT22;69691;48.172;17.070;2024-02-14T15:03:20;13.10;56.70
14877;DHT22;69691;48.172;17.070;2024-02-14T15:05:46;13.20;56.70
14877;DHT22;69691;48.172;17.070;2024-02-14T15:08:14;13.30;56.70
14877;DHT22;69691;48.172;17.070;2024-02-14T15:10:40;13.20;57.20
14877;DHT22;69691;48.172;17.070;2024-02-14T15:13:09;13.30;56.90
14877;DHT22;69691;48.172;17.070;2024-02-14T15:15:35;13.20;57.40
14877;DHT22;69691;48.172;17.070;2024-02-14T15:18:02;13.30;57.00
14877;DHT22;69691;48.172;17.070;2024-02-14T15:20:28;13.20;57.10
14877;DHT22;69691;48.172;17.070;2024-02-14T15:22:55;13.20;57.20
14877;DHT22;69691;48.172;17.070;2024-02-14T15:25:21;13.20;57.30